Mc Clusky, North Dakota
Current Conditions -  °F | °C
As of 12:15 PM on Thursday 27 Nov 2014 (Local Time) from K5H4 Reporting Station
Clear Clear  
Wind Chill: -9°   Ceiling: Unl
Heat Index:   Visibility: 10mi
Dew Point:   Wind: 9mph
Humidity: 85%   Direction: 160°SSE
Pressure: 30.22"   Gusts: NA
Location:  47.4796°N, 100.469°W
Report Text: K5H4 271815Z AUTO 16008KT 10SM CLR M15/M17 A3022 RMK AO2
Loading
Personal Weather Stations






























Interactive Weather Map New forecast layout! Learn more

10-Day Weather Forecast

Advertisements
Track Severe Weather on mobile